Time;durP1;ratioP1;P1;durP2;ratioP2;P2;SDS_P1;SDS_P2;PMS_P1;PMS_P2;Temp;Humidity;BMP_temperature;BMP_pressure;BME280_temperature;BME280_humidity;BME280_pressure;Samples;Min_cycle;Max_cycle;Signal;HPM_P1;HPM_P2
2022/06/19 00:02:15;;;;;;;15.60;3.80;;;14.80;99.90;;;;;;4986701;28;20129;-71
2022/06/19 00:04:46;;;;;;;12.82;3.88;;;14.80;99.90;;;;;;4986685;28;20183;-70
2022/06/19 00:07:12;;;;;;;17.15;3.42;;;14.80;99.90;;;;;;4999976;28;20104;-69
2022/06/19 00:09:37;;;;;;;13.32;3.13;;;14.70;99.90;;;;;;5009455;28;20053;-71
2022/06/19 00:12:04;;;;;;;18.50;2.83;;;14.70;99.90;;;;;;4988934;28;20072;-70
2022/06/19 00:14:33;;;;;;;17.23;3.45;;;14.70;99.90;;;;;;5007991;28;20104;-70
2022/06/19 00:17:03;;;;;;;15.77;3.42;;;14.70;99.90;;;;;;4990060;28;20100;-71
2022/06/19 00:19:29;;;;;;;12.38;3.00;;;14.60;99.90;;;;;;5002108;28;20050;-70
2022/06/19 00:21:55;;;;;;;11.05;3.30;;;14.60;99.90;;;;;;5007349;28;20052;-70
2022/06/19 00:24:24;;;;;;;14.60;3.20;;;14.60;99.90;;;;;;5034476;28;20045;-71
2022/06/19 00:26:50;;;;;;;17.40;3.83;;;14.60;99.90;;;;;;5014600;28;20041;-70
2022/06/19 00:29:19;;;;;;;14.88;3.38;;;14.60;99.90;;;;;;5017133;28;20529;-70
2022/06/19 00:31:45;;;;;;;13.05;3.10;;;14.60;99.90;;;;;;4999814;28;20122;-71
2022/06/19 00:34:10;;;;;;;12.52;3.03;;;14.60;99.90;;;;;;5015292;28;20050;-71
2022/06/19 00:36:36;;;;;;;13.00;3.47;;;14.60;99.90;;;;;;4982527;28;20583;-70
2022/06/19 00:39:03;;;;;;;15.95;3.35;;;14.60;99.90;;;;;;4983095;28;20041;-70
2022/06/19 00:41:34;;;;;;;17.00;3.35;;;14.50;99.90;;;;;;4985564;28;20095;-70
2022/06/19 00:44:05;;;;;;;12.80;3.20;;;14.50;99.90;;;;;;5004463;28;20096;-71
2022/06/19 00:47:14;;;;;;;17.00;4.57;;;14.50;99.90;;;;;;5000317;28;20046;-71
2022/06/19 00:49:49;;;;;;;16.80;3.40;;;14.50;99.90;;;;;;4995140;28;20144;-71
2022/06/19 00:52:24;;;;;;;12.25;3.47;;;14.40;99.90;;;;;;4998816;28;20076;-70
2022/06/19 00:54:59;;;;;;;14.05;2.85;;;14.40;99.90;;;;;;5000584;28;20046;-71
2022/06/19 00:57:27;;;;;;;15.60;3.45;;;14.50;99.90;;;;;;4997945;28;21629;-70
2022/06/19 01:00:10;;;;;;;12.57;2.85;;;14.40;99.90;;;;;;5005320;28;20058;-71
2022/06/19 01:02:41;;;;;;;16.02;3.58;;;14.50;99.90;;;;;;4989127;28;20049;-70
2022/06/19 01:05:11;;;;;;;15.10;3.08;;;14.50;99.90;;;;;;5000298;28;20046;-71
2022/06/19 01:07:38;;;;;;;13.95;3.13;;;14.50;99.90;;;;;;5002433;28;20042;-71
2022/06/19 01:10:04;;;;;;;16.90;2.63;;;14.50;99.90;;;;;;5002435;28;20051;-71
2022/06/19 01:12:31;;;;;;;13.57;3.03;;;14.50;99.90;;;;;;4999630;28;20133;-71
2022/06/19 01:15:01;;;;;;;15.70;3.35;;;14.60;99.90;;;;;;4994312;28;20060;-71
2022/06/19 01:17:28;;;;;;;9.85;2.72;;;14.60;99.90;;;;;;5004592;28;20464;-71
2022/06/19 01:19:53;;;;;;;11.18;2.67;;;14.60;99.90;;;;;;5000061;28;20050;-71
2022/06/19 01:22:31;;;;;;;13.82;2.85;;;14.60;99.90;;;;;;4984193;28;20062;-71
2022/06/19 01:25:10;;;;;;;14.55;2.90;;;14.60;99.90;;;;;;5000196;28;20132;-70
2022/06/19 01:30:30;;;;;;;10.05;2.42;;;14.60;99.90;;;;;;5027032;28;20379;-70
2022/06/19 01:32:58;;;;;;;10.30;2.15;;;14.60;99.90;;;;;;5024201;28;20053;-70
2022/06/19 01:35:30;;;;;;;11.18;1.95;;;14.70;99.90;;;;;;5040066;28;20074;-70
2022/06/19 01:37:57;;;;;;;10.13;1.98;;;14.60;99.90;;;;;;5038997;28;20527;-70
2022/06/19 01:40:27;;;;;;;9.38;1.70;;;14.70;99.90;;;;;;4986793;28;20646;-70
2022/06/19 01:42:54;;;;;;;12.80;2.33;;;14.70;99.90;;;;;;5003358;28;20064;-70
2022/06/19 01:45:20;;;;;;;6.65;1.40;;;14.70;99.90;;;;;;4970494;28;20097;-70
2022/06/19 01:47:46;;;;;;;9.38;2.20;;;14.70;99.90;;;;;;4980501;28;20456;-70
2022/06/19 01:50:22;;;;;;;10.07;2.20;;;14.70;99.90;;;;;;4990571;28;20527;-70
2022/06/19 01:52:52;;;;;;;10.88;2.25;;;14.70;99.90;;;;;;5033363;28;20053;-71
2022/06/19 01:55:20;;;;;;;11.10;2.00;;;14.70;99.90;;;;;;4987085;28;20038;-71
2022/06/19 01:57:49;;;;;;;10.40;1.88;;;14.70;99.90;;;;;;4987987;28;20042;-70
2022/06/19 02:00:25;;;;;;;10.25;2.25;;;14.60;99.90;;;;;;5016779;28;20050;-70
2022/06/19 02:03:07;;;;;;;11.27;2.15;;;14.60;99.90;;;;;;4995161;28;20959;-69
2022/06/19 02:05:34;;;;;;;11.00;2.05;;;14.70;99.90;;;;;;4994515;28;20046;-70
2022/06/19 02:08:00;;;;;;;11.55;2.50;;;14.60;99.90;;;;;;5002575;28;20227;-70
2022/06/19 02:10:26;;;;;;;12.23;2.45;;;14.70;99.90;;;;;;5009036;28;20505;-71
2022/06/19 02:12:52;;;;;;;13.30;2.78;;;14.70;99.90;;;;;;4985371;28;20053;-70
2022/06/19 02:15:18;;;;;;;11.02;2.28;;;14.70;99.90;;;;;;4983253;28;20073;-70
2022/06/19 02:17:51;;;;;;;12.82;2.40;;;14.70;99.90;;;;;;4995798;28;20061;-69
2022/06/19 02:20:18;;;;;;;13.38;2.90;;;14.60;99.90;;;;;;5018916;28;21328;-70
2022/06/19 02:22:44;;;;;;;12.65;2.92;;;14.70;99.90;;;;;;5012839;28;20042;-70
2022/06/19 02:25:10;;;;;;;13.88;2.65;;;14.70;99.90;;;;;;5016436;28;20057;-71
2022/06/19 02:27:38;;;;;;;14.73;2.72;;;14.70;99.90;;;;;;5006282;28;20080;-70
2022/06/19 02:30:06;;;;;;;12.25;2.88;;;14.70;99.90;;;;;;5018551;28;20054;-72
2022/06/19 02:32:48;;;;;;;13.80;2.80;;;14.70;99.90;;;;;;5000057;28;20459;-69
2022/06/19 02:35:20;;;;;;;11.85;2.63;;;14.70;99.90;;;;;;5010720;28;20041;-70
2022/06/19 02:37:52;;;;;;;13.25;2.60;;;14.70;99.90;;;;;;5013109;28;20166;-70
2022/06/19 02:40:40;;;;;;;13.05;2.72;;;14.70;99.90;;;;;;5011381;28;20442;-71
2022/06/19 02:43:12;;;;;;;12.00;2.40;;;14.70;99.90;;;;;;4982977;28;20467;-71
2022/06/19 02:45:39;;;;;;;15.43;3.22;;;14.70;99.90;;;;;;5000724;28;20077;-70
2022/06/19 02:48:05;;;;;;;15.30;2.80;;;14.70;99.90;;;;;;4983754;28;20526;-72
2022/06/19 02:50:34;;;;;;;12.77;2.65;;;14.70;99.90;;;;;;4961263;28;20125;-70
2022/06/19 02:53:00;;;;;;;13.05;2.65;;;14.70;99.90;;;;;;5001701;28;20041;-72
2022/06/19 02:55:27;;;;;;;16.60;3.17;;;14.70;99.90;;;;;;4998215;28;20072;-70
2022/06/19 02:57:53;;;;;;;13.25;2.50;;;14.70;99.90;;;;;;4982222;28;21247;-70
2022/06/19 03:00:25;;;;;;;13.32;2.58;;;14.70;99.90;;;;;;4971907;28;20100;-71
2022/06/19 03:02:54;;;;;;;13.07;3.40;;;14.70;99.90;;;;;;4993158;28;20068;-70
2022/06/19 03:05:24;;;;;;;13.38;2.80;;;14.70;99.90;;;;;;5032821;28;20698;-70
2022/06/19 03:07:50;;;;;;;13.57;2.40;;;14.60;99.90;;;;;;4999719;28;20080;-70
2022/06/19 03:10:17;;;;;;;12.85;2.78;;;14.60;99.90;;;;;;4997149;28;20477;-70
2022/06/19 03:12:46;;;;;;;11.80;2.75;;;14.60;99.90;;;;;;5001427;28;20394;-73
2022/06/19 03:15:13;;;;;;;10.38;2.67;;;14.60;99.90;;;;;;5000513;28;20050;-70
2022/06/19 03:17:40;;;;;;;12.98;2.88;;;14.50;99.90;;;;;;4972747;28;20104;-70
2022/06/19 03:20:07;;;;;;;14.50;3.00;;;14.50;99.90;;;;;;4986445;28;20673;-70
2022/06/19 03:22:33;;;;;;;14.35;3.15;;;14.40;99.90;;;;;;4986699;28;20050;-69
2022/06/19 03:24:59;;;;;;;13.65;2.70;;;14.30;99.90;;;;;;5001094;28;20080;-69
2022/06/19 03:27:24;;;;;;;13.35;3.13;;;14.30;99.90;;;;;;4964863;28;20062;-69
2022/06/19 03:29:50;;;;;;;15.88;3.38;;;14.40;99.90;;;;;;4985444;28;20194;-69
2022/06/19 03:32:16;;;;;;;12.05;2.60;;;14.30;99.90;;;;;;5014945;28;20541;-69
2022/06/19 03:34:45;;;;;;;15.18;2.72;;;14.30;99.90;;;;;;5001102;28;20038;-70
2022/06/19 03:37:11;;;;;;;12.55;2.63;;;14.30;99.90;;;;;;4986177;28;20115;-70
2022/06/19 03:39:40;;;;;;;14.70;2.70;;;14.30;99.90;;;;;;4982801;28;21380;-70
2022/06/19 03:42:07;;;;;;;11.27;2.67;;;14.30;99.90;;;;;;5003923;28;20100;-70
2022/06/19 03:44:34;;;;;;;12.50;3.22;;;14.20;99.90;;;;;;5016617;28;20049;-70
2022/06/19 03:46:59;;;;;;;13.73;3.10;;;14.30;99.90;;;;;;4995893;28;20058;-71
2022/06/19 03:49:26;;;;;;;18.42;3.03;;;14.30;99.90;;;;;;5006357;28;20123;-71
2022/06/19 03:51:52;;;;;;;10.98;2.80;;;14.20;99.90;;;;;;4982968;28;20056;-70
2022/06/19 03:54:18;;;;;;;11.75;2.60;;;14.10;99.90;;;;;;5008415;28;20345;-70
2022/06/19 03:56:47;;;;;;;13.02;2.80;;;14.20;99.90;;;;;;4966948;28;20050;-71
2022/06/19 03:59:13;;;;;;;11.63;2.83;;;14.20;99.90;;;;;;4967296;28;20046;-69
2022/06/19 04:01:40;;;;;;;13.50;3.08;;;14.20;99.90;;;;;;4996386;28;20049;-70
2022/06/19 04:04:12;;;;;;;12.27;2.80;;;14.30;99.90;;;;;;4994380;28;20041;-70
2022/06/19 04:06:43;;;;;;;12.50;2.70;;;14.20;99.90;;;;;;4999389;28;20376;-69
2022/06/19 04:09:17;;;;;;;13.27;3.10;;;14.10;99.90;;;;;;4992735;28;20117;-69
2022/06/19 04:11:43;;;;;;;16.42;3.30;;;14.00;99.90;;;;;;5030697;28;20505;-70
2022/06/19 04:14:11;;;;;;;14.02;2.90;;;14.00;99.90;;;;;;5010613;28;20066;-71
2022/06/19 04:16:37;;;;;;;12.43;3.10;;;13.90;99.90;;;;;;5009552;28;20054;-70
2022/06/19 04:19:07;;;;;;;16.23;4.25;;;13.90;99.90;;;;;;4981969;28;20049;-70
2022/06/19 04:21:38;;;;;;;11.73;3.17;;;13.90;99.90;;;;;;4966191;28;20365;-69
2022/06/19 04:24:05;;;;;;;14.52;2.72;;;13.80;99.90;;;;;;5034468;28;20452;-70
2022/06/19 04:26:34;;;;;;;13.05;2.95;;;13.80;99.90;;;;;;4996846;28;20077;-71
2022/06/19 04:29:00;;;;;;;12.40;2.72;;;13.80;99.90;;;;;;4996360;28;20054;-70
2022/06/19 04:31:26;;;;;;;13.43;2.85;;;13.80;99.90;;;;;;4986770;28;20504;-70
2022/06/19 04:33:53;;;;;;;11.48;2.50;;;13.80;99.90;;;;;;4996539;28;20060;-71
2022/06/19 04:36:21;;;;;;;12.75;2.95;;;13.80;99.90;;;;;;4997968;28;20054;-71
2022/06/19 04:38:50;;;;;;;16.52;3.05;;;13.80;99.90;;;;;;5029255;28;20041;-71
2022/06/19 04:41:38;;;;;;;15.10;2.70;;;13.80;99.90;;;;;;4977968;28;20447;-70
2022/06/19 04:44:06;;;;;;;12.30;2.83;;;13.70;99.90;;;;;;5004297;28;20116;-71
2022/06/19 04:46:32;;;;;;;12.13;2.40;;;13.70;99.90;;;;;;4995920;28;20038;-70
2022/06/19 04:48:57;;;;;;;13.55;2.17;;;13.80;99.90;;;;;;5015765;28;20054;-70
2022/06/19 04:51:24;;;;;;;10.00;2.47;;;13.80;99.90;;;;;;5014881;28;20137;-71
2022/06/19 04:53:53;;;;;;;17.23;2.97;;;13.90;99.90;;;;;;5003289;28;20121;-71
2022/06/19 04:56:19;;;;;;;9.63;2.13;;;13.90;99.90;;;;;;5001639;28;20412;-71
2022/06/19 04:58:46;;;;;;;14.52;2.75;;;13.90;99.90;;;;;;4988045;28;20058;-71
2022/06/19 05:01:24;;;;;;;13.38;2.72;;;14.00;99.90;;;;;;4994547;28;20074;-71
2022/06/19 05:03:52;;;;;;;12.25;2.38;;;14.00;99.90;;;;;;5037429;28;20099;-71
2022/06/19 05:06:19;;;;;;;10.75;2.63;;;14.00;99.90;;;;;;5002600;28;20519;-71
2022/06/19 05:08:45;;;;;;;12.65;2.50;;;14.00;99.90;;;;;;4991191;28;20465;-71
2022/06/19 05:11:12;;;;;;;12.52;2.42;;;14.00;99.90;;;;;;5012159;28;20042;-72
2022/06/19 05:13:38;;;;;;;11.75;2.33;;;14.00;99.90;;;;;;5018037;28;20089;-71
2022/06/19 05:16:09;;;;;;;12.55;2.65;;;14.00;99.90;;;;;;5037482;28;20465;-70
2022/06/19 05:18:35;;;;;;;12.40;2.45;;;14.00;99.90;;;;;;4995674;28;20057;-71
2022/06/19 05:21:02;;;;;;;13.60;2.25;;;14.00;99.90;;;;;;5000700;28;20633;-69
2022/06/19 05:23:29;;;;;;;13.30;2.38;;;14.00;99.90;;;;;;5014901;28;20121;-69
2022/06/19 05:26:07;;;;;;;11.32;2.67;;;14.10;99.90;;;;;;5012476;28;20046;-70
2022/06/19 05:28:35;;;;;;;16.00;3.33;;;14.00;99.90;;;;;;4994758;28;20571;-71
2022/06/19 05:31:01;;;;;;;12.45;2.63;;;14.00;99.90;;;;;;4982584;28;20049;-69
2022/06/19 05:33:29;;;;;;;14.45;2.67;;;14.00;99.90;;;;;;5009993;28;20073;-70
2022/06/19 05:35:55;;;;;;;13.68;3.05;;;13.90;99.90;;;;;;5038983;28;20073;-70
2022/06/19 05:38:21;;;;;;;13.00;2.40;;;13.90;99.90;;;;;;5033066;28;20648;-69
2022/06/19 05:40:52;;;;;;;11.07;2.50;;;13.90;99.90;;;;;;4991997;28;20072;-70
2022/06/19 05:43:19;;;;;;;12.32;2.10;;;13.80;99.90;;;;;;5006181;28;20081;-70
2022/06/19 05:45:59;;;;;;;11.35;2.15;;;13.70;99.90;;;;;;5008912;28;20049;-71
2022/06/19 05:48:27;;;;;;;7.82;2.22;;;13.60;99.90;;;;;;5007892;28;20395;-70
2022/06/19 05:51:05;;;;;;;9.60;2.05;;;13.50;99.90;;;;;;4983346;28;20049;-70
2022/06/19 05:53:35;;;;;;;8.25;1.77;;;13.50;99.90;;;;;;5001835;28;20046;-70
2022/06/19 05:56:01;;;;;;;6.88;1.73;;;13.40;99.90;;;;;;4993347;28;20080;-69
2022/06/19 05:58:27;;;;;;;8.55;2.30;;;13.40;99.90;;;;;;4995061;28;20456;-70
2022/06/19 06:00:53;;;;;;;8.70;1.80;;;13.50;99.90;;;;;;5022125;28;20125;-70
2022/06/19 06:03:20;;;;;;;11.20;2.35;;;13.50;99.90;;;;;;5023966;28;20397;-70
2022/06/19 06:05:47;;;;;;;9.85;2.13;;;13.50;99.90;;;;;;5005915;28;20279;-70
2022/06/19 06:08:14;;;;;;;10.05;2.33;;;13.60;99.90;;;;;;4989759;28;20046;-70
2022/06/19 06:10:40;;;;;;;12.23;2.33;;;13.60;99.90;;;;;;5017455;28;20123;-70
2022/06/19 06:13:07;;;;;;;10.30;2.13;;;13.60;99.90;;;;;;5022823;28;20046;-70
2022/06/19 06:15:33;;;;;;;9.50;2.25;;;13.60;99.90;;;;;;5007980;28;20121;-70
2022/06/19 06:18:00;;;;;;;9.85;2.50;;;13.60;99.90;;;;;;4991139;28;20038;-70
2022/06/19 06:20:27;;;;;;;11.68;2.70;;;13.60;99.90;;;;;;4979441;28;20132;-71
2022/06/19 06:22:57;;;;;;;9.57;2.30;;;13.60;99.90;;;;;;5017726;28;20069;-70
2022/06/19 06:25:23;;;;;;;8.60;2.05;;;13.60;99.90;;;;;;4976857;28;20045;-70
2022/06/19 06:27:50;;;;;;;8.50;1.70;;;13.60;99.90;;;;;;4997406;28;20054;-70
2022/06/19 06:30:15;;;;;;;12.07;2.80;;;13.60;99.90;;;;;;4987433;28;20123;-70
2022/06/19 06:32:43;;;;;;;11.30;2.25;;;13.60;99.90;;;;;;4985644;28;20042;-70
2022/06/19 06:35:10;;;;;;;11.90;2.30;;;13.70;99.90;;;;;;4992025;28;20042;-71
2022/06/19 06:37:36;;;;;;;9.18;2.42;;;13.70;99.90;;;;;;5040831;28;20488;-71
2022/06/19 06:40:05;;;;;;;12.38;2.85;;;13.60;99.90;;;;;;5017353;28;20493;-71
2022/06/19 06:42:31;;;;;;;10.75;2.17;;;13.60;99.90;;;;;;4989592;28;20041;-71
2022/06/19 06:44:57;;;;;;;13.40;2.78;;;13.60;99.90;;;;;;4986455;28;20042;-71
2022/06/19 06:47:23;;;;;;;10.25;2.50;;;13.70;99.90;;;;;;5021739;28;20551;-70
2022/06/19 06:49:48;;;;;;;10.95;2.47;;;13.70;99.90;;;;;;4991883;28;20085;-71
2022/06/19 06:52:14;;;;;;;13.27;2.95;;;13.80;99.90;;;;;;4977246;28;20077;-70
2022/06/19 06:54:40;;;;;;;12.52;2.50;;;13.70;99.90;;;;;;4983317;28;20122;-71
2022/06/19 06:57:07;;;;;;;11.68;2.75;;;13.80;99.90;;;;;;5010402;28;20041;-72
2022/06/19 06:59:34;;;;;;;11.38;2.60;;;13.80;99.90;;;;;;4987100;28;20068;-71
2022/06/19 07:02:00;;;;;;;17.20;3.72;;;13.80;99.90;;;;;;5005970;28;20038;-70
2022/06/19 07:04:26;;;;;;;12.63;2.75;;;13.80;99.90;;;;;;4995962;28;20468;-70
2022/06/19 07:06:52;;;;;;;15.30;2.63;;;13.80;99.90;;;;;;5012184;28;20582;-70
2022/06/19 07:09:18;;;;;;;16.30;2.88;;;13.80;99.90;;;;;;5036007;28;20089;-71
2022/06/19 07:11:47;;;;;;;14.40;3.17;;;13.80;99.90;;;;;;5036971;28;20050;-71
2022/06/19 07:14:17;;;;;;;13.90;3.00;;;13.80;99.90;;;;;;5000830;28;20144;-71
2022/06/19 07:16:43;;;;;;;15.63;2.65;;;14.00;99.90;;;;;;4996134;28;20053;-70
2022/06/19 07:19:10;;;;;;;16.02;3.42;;;13.80;99.90;;;;;;5005180;28;20124;-70
2022/06/19 07:21:36;;;;;;;11.25;2.58;;;13.80;99.90;;;;;;4991206;28;20057;-71
2022/06/19 07:24:02;;;;;;;11.82;2.75;;;13.90;99.90;;;;;;4985555;28;20092;-70
2022/06/19 07:26:28;;;;;;;14.75;3.35;;;13.90;99.90;;;;;;4985704;28;20080;-72
2022/06/19 07:28:55;;;;;;;11.90;3.00;;;13.90;99.90;;;;;;5013928;28;20058;-71
2022/06/19 07:31:20;;;;;;;14.88;2.40;;;13.90;99.90;;;;;;4996391;28;20145;-68
2022/06/19 07:33:49;;;;;;;14.35;2.92;;;13.90;99.90;;;;;;4998140;28;20136;-70
2022/06/19 07:36:19;;;;;;;15.52;3.00;;;14.00;99.90;;;;;;4986023;28;20064;-70
2022/06/19 07:38:46;;;;;;;16.65;2.80;;;14.00;99.90;;;;;;4999964;28;20045;-72
2022/06/19 07:41:12;;;;;;;13.75;2.92;;;14.00;99.90;;;;;;5039233;28;20049;-70
2022/06/19 07:43:38;;;;;;;12.80;2.33;;;14.00;99.90;;;;;;5007069;28;20050;-71
2022/06/19 07:46:04;;;;;;;12.60;2.65;;;14.00;99.90;;;;;;4988589;28;20041;-70
2022/06/19 07:51:15;;;;;;;11.80;2.30;;;14.00;99.90;;;;;;5044495;28;20090;-70
2022/06/19 07:53:40;;;;;;;12.02;2.92;;;14.00;99.90;;;;;;5003058;28;20050;-71
2022/06/19 07:56:06;;;;;;;12.70;2.50;;;14.00;99.90;;;;;;5036866;28;20041;-70
2022/06/19 07:58:35;;;;;;;14.57;2.88;;;14.00;99.90;;;;;;4999799;28;20059;-70
2022/06/19 08:01:00;;;;;;;15.98;3.17;;;14.00;99.90;;;;;;5000999;28;20042;-71
2022/06/19 08:03:26;;;;;;;14.95;3.05;;;14.00;99.90;;;;;;5009498;28;20384;-71
2022/06/19 08:05:55;;;;;;;13.20;2.88;;;14.00;99.90;;;;;;4979914;28;20519;-70
2022/06/19 08:08:27;;;;;;;13.00;2.78;;;14.00;99.90;;;;;;4978560;28;20046;-70
2022/06/19 08:10:54;;;;;;;14.60;2.42;;;14.00;99.90;;;;;;4989069;28;20049;-70
2022/06/19 08:13:22;;;;;;;15.85;2.45;;;14.00;99.90;;;;;;4986096;28;20165;-71
2022/06/19 08:15:57;;;;;;;11.13;2.35;;;14.10;99.90;;;;;;4986865;28;20042;-71
2022/06/19 08:18:23;;;;;;;11.98;2.40;;;14.20;99.90;;;;;;5002528;28;20152;-70
2022/06/19 08:20:49;;;;;;;15.15;3.63;;;14.20;99.90;;;;;;4995008;28;20103;-71
2022/06/19 08:23:17;;;;;;;11.02;2.75;;;14.20;99.90;;;;;;5012780;28;20143;-71
2022/06/19 08:25:45;;;;;;;12.18;2.63;;;14.30;99.90;;;;;;5003158;28;20544;-70
2022/06/19 08:28:13;;;;;;;8.93;2.08;;;14.40;99.90;;;;;;5017043;28;20069;-70
2022/06/19 08:30:41;;;;;;;14.43;2.50;;;14.50;99.90;;;;;;5032675;28;20424;-70
2022/06/19 08:33:07;;;;;;;12.57;3.15;;;14.50;99.90;;;;;;4986617;28;20169;-71
2022/06/19 08:35:45;;;;;;;10.93;2.58;;;14.50;99.90;;;;;;5016448;28;20457;-71
2022/06/19 08:38:19;;;;;;;12.93;3.08;;;14.50;99.90;;;;;;5000612;28;20181;-71
2022/06/19 08:41:07;;;;;;;12.88;2.45;;;14.50;99.90;;;;;;5002286;28;20048;-71
2022/06/19 08:44:04;;;;;;;10.18;2.72;;;14.50;99.90;;;;;;4999879;28;20049;-71
2022/06/19 08:46:54;;;;;;;12.55;3.00;;;14.50;99.90;;;;;;5033460;28;20042;-71
2022/06/19 08:49:45;;;;;;;13.27;2.55;;;14.50;99.90;;;;;;5015135;28;20493;-71
2022/06/19 08:52:10;;;;;;;12.30;2.70;;;14.40;99.90;;;;;;5032500;28;20103;-70
2022/06/19 08:54:43;;;;;;;12.35;2.75;;;14.40;99.90;;;;;;5018658;28;20508;-71
2022/06/19 08:57:09;;;;;;;11.88;2.72;;;14.40;99.90;;;;;;5015252;28;20042;-70
2022/06/19 09:00:36;;;;;;;11.98;2.65;;;14.40;99.90;;;;;;4995204;28;20045;-71
2022/06/19 09:03:25;;;;;;;12.93;2.90;;;14.30;99.90;;;;;;4960054;28;20041;-71
2022/06/19 09:06:05;;;;;;;16.25;3.00;;;14.30;99.90;;;;;;5015816;28;20045;-70
2022/06/19 09:08:39;;;;;;;13.40;2.65;;;14.40;99.90;;;;;;4979562;28;20050;-71
2022/06/19 09:11:21;;;;;;;12.85;2.78;;;14.40;99.90;;;;;;4987057;28;20128;-71
2022/06/19 09:13:52;;;;;;;10.05;2.45;;;14.50;99.90;;;;;;4985671;28;20042;-71
2022/06/19 09:16:21;;;;;;;9.15;2.55;;;14.50;99.90;;;;;;4998957;28;20054;-70
2022/06/19 09:19:12;;;;;;;9.05;2.22;;;14.60;99.90;;;;;;5007551;28;20041;-70
2022/06/19 09:22:09;;;;;;;16.25;3.28;;;14.60;99.90;;;;;;4980462;28;20667;-70
2022/06/19 09:24:46;;;;;;;12.02;2.83;;;14.60;99.90;;;;;;4983563;28;20124;-71
2022/06/19 09:27:14;;;;;;;8.55;2.30;;;14.60;99.90;;;;;;5001794;28;20049;-71
2022/06/19 09:29:55;;;;;;;10.40;2.55;;;14.60;99.90;;;;;;4984815;28;20084;-70
2022/06/19 09:32:23;;;;;;;10.00;2.35;;;14.60;99.90;;;;;;5000309;28;20369;-71
2022/06/19 09:35:01;;;;;;;9.70;2.28;;;14.60;99.90;;;;;;4999250;28;20049;-71
2022/06/19 09:37:45;;;;;;;11.20;2.85;;;14.60;99.90;;;;;;4999447;28;20049;-71
2022/06/19 09:40:23;;;;;;;14.57;2.92;;;14.60;99.90;;;;;;4993116;28;20054;-71
2022/06/19 09:43:02;;;;;;;9.65;2.30;;;14.70;99.90;;;;;;5001460;28;20046;-71
2022/06/19 09:45:39;;;;;;;9.35;2.40;;;14.70;99.90;;;;;;5007006;28;20042;-71
2022/06/19 09:48:26;;;;;;;9.95;2.35;;;14.70;99.90;;;;;;4986111;28;20053;-71
2022/06/19 09:51:05;;;;;;;9.40;2.65;;;14.80;99.90;;;;;;4989425;28;20128;-70
2022/06/19 09:53:59;;;;;;;9.98;2.80;;;14.90;99.90;;;;;;4985158;28;20144;-70
2022/06/19 09:56:57;;;;;;;8.25;2.88;;;15.00;99.90;;;;;;5033330;28;20085;-71
2022/06/19 09:59:35;;;;;;;8.38;2.55;;;15.00;99.90;;;;;;5001122;28;20046;-71
2022/06/19 10:02:33;;;;;;;9.07;2.42;;;15.20;99.90;;;;;;5033899;28;20042;-70
2022/06/19 10:05:05;;;;;;;10.32;2.22;;;15.30;99.90;;;;;;5001054;28;20462;-71
2022/06/19 10:07:37;;;;;;;9.68;2.10;;;15.40;99.90;;;;;;4985034;28;20046;-70
2022/06/19 10:10:18;;;;;;;11.73;2.50;;;15.50;99.90;;;;;;4983789;28;20045;-71
2022/06/19 10:12:48;;;;;;;9.63;2.20;;;15.50;99.90;;;;;;5020920;28;20057;-70
2022/06/19 10:15:19;;;;;;;7.43;1.58;;;15.60;99.90;;;;;;5001891;28;20408;-71
2022/06/19 10:17:57;;;;;;;9.02;1.85;;;15.60;99.90;;;;;;5018921;28;20073;-71
2022/06/19 10:20:44;;;;;;;7.80;1.90;;;15.60;99.90;;;;;;5002292;28;20054;-70
2022/06/19 10:23:22;;;;;;;9.20;1.80;;;15.70;99.90;;;;;;4999454;28;20501;-71
2022/06/19 10:26:20;;;;;;;6.85;1.60;;;15.70;99.90;;;;;;5020743;28;20449;-71
2022/06/19 10:29:12;;;;;;;9.77;2.05;;;15.70;99.90;;;;;;4987181;28;20353;-70
2022/06/19 10:31:47;;;;;;;7.93;2.10;;;15.80;99.90;;;;;;5004176;28;20460;-72
2022/06/19 10:34:32;;;;;;;10.50;1.92;;;15.80;99.90;;;;;;5002712;28;20416;-71
2022/06/19 10:37:31;;;;;;;8.77;1.90;;;15.70;99.90;;;;;;5003749;28;20587;-70
2022/06/19 10:40:05;;;;;;;8.60;1.90;;;15.70;99.90;;;;;;5007852;28;20058;-71
2022/06/19 10:42:42;;;;;;;6.95;1.50;;;15.70;99.90;;;;;;5004855;28;20042;-69
2022/06/19 10:45:22;;;;;;;9.07;2.13;;;15.70;99.90;;;;;;4987030;28;20049;-71
2022/06/19 10:47:58;;;;;;;8.23;1.98;;;15.70;99.90;;;;;;5020806;28;20057;-71
2022/06/19 10:50:27;;;;;;;9.95;1.63;;;15.70;99.90;;;;;;5002009;28;20056;-70
2022/06/19 10:53:04;;;;;;;8.07;1.70;;;15.80;99.90;;;;;;4989577;28;20042;-72
2022/06/19 10:55:38;;;;;;;7.78;1.95;;;15.80;99.90;;;;;;5031446;28;20137;-70
2022/06/19 10:58:15;;;;;;;10.20;2.25;;;15.90;99.90;;;;;;4986840;28;20058;-70
2022/06/19 11:00:41;;;;;;;8.07;2.15;;;15.90;99.90;;;;;;5002850;28;20054;-70
2022/06/19 11:06:38;;;;;;;8.32;1.67;;;16.00;99.90;;;;;;5038040;28;20107;-70
2022/06/19 11:09:07;;;;;;;8.05;1.80;;;15.90;99.90;;;;;;5032080;28;20062;-70
2022/06/19 11:11:37;;;;;;;8.05;1.77;;;15.90;99.90;;;;;;5002182;28;20049;-72
2022/06/19 11:14:04;;;;;;;7.90;1.95;;;15.80;99.90;;;;;;4987595;28;20404;-70
2022/06/19 11:16:32;;;;;;;7.63;1.77;;;15.70;99.90;;;;;;5012709;28;20459;-70
2022/06/19 11:18:58;;;;;;;6.68;1.40;;;15.70;99.90;;;;;;5000365;28;20353;-69
2022/06/19 11:21:33;;;;;;;6.75;1.33;;;15.60;99.90;;;;;;5002676;28;20133;-70
2022/06/19 11:24:02;;;;;;;6.47;1.50;;;15.50;99.90;;;;;;4999346;28;20072;-71
2022/06/19 11:26:43;;;;;;;8.77;1.52;;;15.50;99.90;;;;;;4986835;28;20054;-70
2022/06/19 11:29:17;;;;;;;6.03;1.52;;;15.40;99.90;;;;;;5032245;28;20057;-71
2022/06/19 11:32:05;;;;;;;8.02;1.63;;;15.40;99.90;;;;;;4987723;28;20042;-69
2022/06/19 11:34:45;;;;;;;7.75;1.88;;;15.30;99.90;;;;;;5009014;28;20045;-70
2022/06/19 11:37:33;;;;;;;6.63;1.38;;;15.30;99.90;;;;;;5003222;28;20054;-70
2022/06/19 11:39:59;;;;;;;5.93;1.48;;;15.20;99.90;;;;;;5001917;28;20044;-71
2022/06/19 11:42:44;;;;;;;5.68;1.35;;;15.20;99.90;;;;;;4986626;28;20050;-70
2022/06/19 11:45:13;;;;;;;7.68;1.38;;;15.20;99.90;;;;;;4999090;28;20034;-70
2022/06/19 11:47:41;;;;;;;6.82;1.65;;;15.20;99.90;;;;;;4988828;28;20033;-71
2022/06/19 11:50:11;;;;;;;4.72;1.20;;;15.20;99.90;;;;;;4995435;28;20046;-71
2022/06/19 11:52:44;;;;;;;;;;;15.20;99.90;;;;;;4997486;28;20057;-71
2022/06/19 11:55:31;;;;;;;6.20;1.33;;;15.20;99.90;;;;;;5033977;28;19932;-71
2022/06/19 11:58:31;;;;;;;9.70;1.40;;;15.30;99.90;;;;;;4996720;28;20414;-71
2022/06/19 12:01:00;;;;;;;;;;;15.40;99.90;;;;;;5034896;28;20407;-71
2022/06/19 12:03:31;;;;;;;8.50;1.65;;;15.50;99.90;;;;;;5000885;28;19932;-71
2022/06/19 12:06:04;;;;;;;7.57;1.10;;;15.60;99.90;;;;;;5003485;28;20528;-71
2022/06/19 12:08:33;;;;;;;7.97;1.52;;;15.80;99.90;;;;;;4998383;28;20058;-72
2022/06/19 12:11:02;;;;;;;5.53;1.23;;;15.70;99.90;;;;;;5019904;28;20038;-71
2022/06/19 12:13:41;;;;;;;5.57;1.33;;;15.70;99.90;;;;;;5021459;28;20421;-72
2022/06/19 12:16:22;;;;;;;7.50;2.00;;;15.80;99.90;;;;;;4987909;28;20053;-72
2022/06/19 12:18:48;;;;;;;4.50;1.13;;;15.80;99.90;;;;;;5002179;28;20133;-71
2022/06/19 12:21:32;;;;;;;6.75;1.27;;;15.80;99.90;;;;;;5002594;28;20133;-72
2022/06/19 12:24:28;;;;;;;4.63;0.95;;;16.00;99.90;;;;;;5009080;28;20125;-72
2022/06/19 12:26:57;;;;;;;4.70;1.00;;;16.10;99.90;;;;;;5000332;28;20049;-71
2022/06/19 12:29:33;;;;;;;3.90;0.82;;;16.30;99.90;;;;;;5030638;28;20220;-72
2022/06/19 12:32:06;;;;;;;4.38;0.88;;;16.60;99.90;;;;;;5019130;28;20041;-71
2022/06/19 12:34:44;;;;;;;4.55;0.95;;;16.80;99.90;;;;;;5037741;28;20045;-71
2022/06/19 12:37:20;;;;;;;3.42;0.98;;;16.90;99.90;;;;;;5034066;28;20046;-71
2022/06/19 12:39:47;;;;;;;3.70;0.90;;;16.80;99.90;;;;;;5009858;28;20532;-72
2022/06/19 12:42:22;;;;;;;4.90;0.98;;;16.70;99.90;;;;;;4985750;28;20044;-72
2022/06/19 12:44:53;;;;;;;2.92;0.90;;;16.70;99.90;;;;;;4986286;28;20108;-71
2022/06/19 12:47:47;;;;;;;3.13;0.80;;;16.70;99.90;;;;;;5004807;28;20060;-72
2022/06/19 12:50:47;;;;;;;4.22;0.93;;;16.80;99.90;;;;;;5036098;28;20103;-72
2022/06/19 12:53:33;;;;;;;3.90;1.30;;;16.70;99.90;;;;;;5017666;28;20049;-71
2022/06/19 12:56:10;;;;;;;2.85;0.90;;;16.60;99.90;;;;;;5014202;28;20046;-71
2022/06/19 12:59:00;;;;;;;4.13;1.10;;;16.50;99.90;;;;;;4996829;28;20054;-72
2022/06/19 13:01:47;;;;;;;5.15;1.17;;;16.40;99.90;;;;;;5013325;28;20378;-71
2022/06/19 13:04:34;;;;;;;4.95;1.38;;;16.40;99.90;;;;;;5013061;28;20054;-71
2022/06/19 13:07:32;;;;;;;3.10;0.80;;;16.30;99.90;;;;;;5028339;28;20057;-72
2022/06/19 13:10:19;;;;;;;4.32;0.95;;;16.20;99.90;;;;;;5002172;28;20577;-71
2022/06/19 13:13:13;;;;;;;6.60;1.20;;;16.20;99.90;;;;;;4985766;28;20060;-73
2022/06/19 13:15:59;;;;;;;5.15;1.30;;;16.20;99.90;;;;;;5001869;28;20128;-71